sensor_id;sensor_type;location;lat;lon;timestamp;pressure;altitude;pressure_sealevel;temperature
67509;BMP280;54354;44.724;11.284;2023-09-30T00:02:14;102141.44;;;25.21
67509;BMP280;54354;44.724;11.284;2023-09-30T00:04:39;102134.03;;;25.21
67509;BMP280;54354;44.724;11.284;2023-09-30T00:11:56;102124.16;;;25.18
67509;BMP280;54354;44.724;11.284;2023-09-30T00:14:22;102121.66;;;25.14
67509;BMP280;54354;44.724;11.284;2023-09-30T00:16:47;102113.28;;;25.12
67509;BMP280;54354;44.724;11.284;2023-09-30T00:19:13;102114.50;;;25.11
67509;BMP280;54354;44.724;11.284;2023-09-30T00:21:39;102111.22;;;25.07
67509;BMP280;54354;44.724;11.284;2023-09-30T00:24:05;102102.09;;;25.05
67509;BMP280;54354;44.724;11.284;2023-09-30T00:26:30;102112.66;;;25.03
67509;BMP280;54354;44.724;11.284;2023-09-30T00:28:56;102106.97;;;25.01
67509;BMP280;54354;44.724;11.284;2023-09-30T00:31:21;102109.91;;;24.97
67509;BMP280;54354;44.724;11.284;2023-09-30T00:33:47;102112.34;;;24.95
67509;BMP280;54354;44.724;11.284;2023-09-30T00:36:13;102113.28;;;24.92
67509;BMP280;54354;44.724;11.284;2023-09-30T00:38:39;102108.81;;;24.89
67509;BMP280;54354;44.724;11.284;2023-09-30T00:41:05;102108.28;;;24.85
67509;BMP280;54354;44.724;11.284;2023-09-30T00:43:32;102109.97;;;24.82
67509;BMP280;54354;44.724;11.284;2023-09-30T00:46:42;102114.41;;;24.80
67509;BMP280;54354;44.724;11.284;2023-09-30T00:49:01;102119.59;;;24.83
67509;BMP280;54354;44.724;11.284;2023-09-30T00:51:28;102125.44;;;24.76
67509;BMP280;54354;44.724;11.284;2023-09-30T00:53:59;102116.50;;;24.70
67509;BMP280;54354;44.724;11.284;2023-09-30T00:56:26;102119.94;;;24.71
67509;BMP280;54354;44.724;11.284;2023-09-30T00:58:52;102117.72;;;24.69
67509;BMP280;54354;44.724;11.284;2023-09-30T01:01:20;102124.56;;;24.65
67509;BMP280;54354;44.724;11.284;2023-09-30T01:03:46;102131.94;;;24.64
67509;BMP280;54354;44.724;11.284;2023-09-30T01:06:12;102129.72;;;24.63
67509;BMP280;54354;44.724;11.284;2023-09-30T01:08:38;102131.66;;;24.62
67509;BMP280;54354;44.724;11.284;2023-09-30T01:11:03;102135.59;;;24.61
67509;BMP280;54354;44.724;11.284;2023-09-30T01:13:36;102120.03;;;24.56
67509;BMP280;54354;44.724;11.284;2023-09-30T01:16:09;102119.50;;;24.52
67509;BMP280;54354;44.724;11.284;2023-09-30T01:18:35;102116.28;;;24.53
67509;BMP280;54354;44.724;11.284;2023-09-30T01:21:06;102107.78;;;24.46
67509;BMP280;54354;44.724;11.284;2023-09-30T01:23:35;102102.94;;;25.16
67509;BMP280;54354;44.724;11.284;2023-09-30T01:26:02;102113.72;;;24.65
67509;BMP280;54354;44.724;11.284;2023-09-30T01:28:29;102108.66;;;24.52
67509;BMP280;54354;44.724;11.284;2023-09-30T01:30:54;102117.44;;;24.47
67509;BMP280;54354;44.724;11.284;2023-09-30T01:33:20;102114.47;;;24.45
67509;BMP280;54354;44.724;11.284;2023-09-30T01:35:45;102120.81;;;24.42
67509;BMP280;54354;44.724;11.284;2023-09-30T01:38:11;102109.69;;;24.40
67509;BMP280;54354;44.724;11.284;2023-09-30T01:40:36;102114.13;;;24.37
67509;BMP280;54354;44.724;11.284;2023-09-30T01:43:03;102118.22;;;24.33
67509;BMP280;54354;44.724;11.284;2023-09-30T01:45:29;102112.28;;;24.28
67509;BMP280;54354;44.724;11.284;2023-09-30T01:47:54;102114.50;;;24.30
67509;BMP280;54354;44.724;11.284;2023-09-30T01:50:20;102108.34;;;24.30
67509;BMP280;54354;44.724;11.284;2023-09-30T01:52:45;102107.81;;;24.25
67509;BMP280;54354;44.724;11.284;2023-09-30T01:55:11;102098.16;;;24.24
67509;BMP280;54354;44.724;11.284;2023-09-30T01:57:37;102100.81;;;24.19
67509;BMP280;54354;44.724;11.284;2023-09-30T02:00:03;102095.88;;;24.17
67509;BMP280;54354;44.724;11.284;2023-09-30T02:02:38;102091.41;;;24.14
67509;BMP280;54354;44.724;11.284;2023-09-30T02:05:04;102084.69;;;24.10
67509;BMP280;54354;44.724;11.284;2023-09-30T02:07:30;102091.31;;;24.09
67509;BMP280;54354;44.724;11.284;2023-09-30T02:09:57;102076.97;;;24.03
67509;BMP280;54354;44.724;11.284;2023-09-30T02:12:22;102092.47;;;24.02
67509;BMP280;54354;44.724;11.284;2023-09-30T02:14:48;102089.19;;;23.98
67509;BMP280;54354;44.724;11.284;2023-09-30T02:17:14;102101.53;;;23.99
67509;BMP280;54354;44.724;11.284;2023-09-30T02:19:39;102095.56;;;23.95
67509;BMP280;54354;44.724;11.284;2023-09-30T02:22:06;102092.31;;;23.91
67509;BMP280;54354;44.724;11.284;2023-09-30T02:24:32;102093.75;;;23.92
67509;BMP280;54354;44.724;11.284;2023-09-30T02:26:58;102090.81;;;23.90
67509;BMP280;54354;44.724;11.284;2023-09-30T02:29:24;102092.31;;;23.91
67509;BMP280;54354;44.724;11.284;2023-09-30T02:31:49;102097.41;;;23.89
67509;BMP280;54354;44.724;11.284;2023-09-30T02:34:15;102102.81;;;23.89
67509;BMP280;54354;44.724;11.284;2023-09-30T02:36:40;102110.69;;;23.87
67509;BMP280;54354;44.724;11.284;2023-09-30T02:39:07;102094.91;;;23.85
67509;BMP280;54354;44.724;11.284;2023-09-30T02:41:36;102095.66;;;23.86
67509;BMP280;54354;44.724;11.284;2023-09-30T02:44:04;102081.09;;;23.83
67509;BMP280;54354;44.724;11.284;2023-09-30T02:46:29;102099.56;;;23.85
67509;BMP280;54354;44.724;11.284;2023-09-30T02:48:55;102100.31;;;23.85
67509;BMP280;54354;44.724;11.284;2023-09-30T02:51:20;102095.66;;;23.86
67509;BMP280;54354;44.724;11.284;2023-09-30T02:53:46;102105.28;;;23.87
67509;BMP280;54354;44.724;11.284;2023-09-30T02:56:14;102100.31;;;23.85
67509;BMP280;54354;44.724;11.284;2023-09-30T02:58:39;102088.28;;;23.86
67509;BMP280;54354;44.724;11.284;2023-09-30T03:01:06;102086.59;;;23.89
67509;BMP280;54354;44.724;11.284;2023-09-30T03:03:32;102081.38;;;23.85
67509;BMP280;54354;44.724;11.284;2023-09-30T03:05:59;102090.25;;;23.86
67509;BMP280;54354;44.724;11.284;2023-09-30T03:08:26;102083.81;;;23.83
67509;BMP280;54354;44.724;11.284;2023-09-30T03:10:51;102093.13;;;23.82
67509;BMP280;54354;44.724;11.284;2023-09-30T03:13:18;102088.94;;;23.81
67509;BMP280;54354;44.724;11.284;2023-09-30T03:15:47;102086.25;;;23.81
67509;BMP280;54354;44.724;11.284;2023-09-30T03:18:15;102077.09;;;23.79
67509;BMP280;54354;44.724;11.284;2023-09-30T03:20:43;102084.00;;;23.80
67509;BMP280;54354;44.724;11.284;2023-09-30T03:23:09;102074.88;;;23.77
67509;BMP280;54354;44.724;11.284;2023-09-30T03:25:35;102076.84;;;23.77
67509;BMP280;54354;44.724;11.284;2023-09-30T03:28:01;102082.50;;;23.79
67509;BMP280;54354;44.724;11.284;2023-09-30T03:30:26;102073.38;;;23.76
67509;BMP280;54354;44.724;11.284;2023-09-30T03:32:52;102062.25;;;23.74
67509;BMP280;54354;44.724;11.284;2023-09-30T03:35:17;102068.59;;;23.71
67509;BMP280;54354;44.724;11.284;2023-09-30T03:37:44;102067.59;;;23.68
67509;BMP280;54354;44.724;11.284;2023-09-30T03:40:11;102073.66;;;23.63
67509;BMP280;54354;44.724;11.284;2023-09-30T03:42:40;102079.34;;;23.65
67509;BMP280;54354;44.724;11.284;2023-09-30T03:45:08;102077.03;;;23.58
67509;BMP280;54354;44.724;11.284;2023-09-30T03:47:37;102083.09;;;23.53
67509;BMP280;54354;44.724;11.284;2023-09-30T03:50:04;102082.13;;;23.56
67509;BMP280;54354;44.724;11.284;2023-09-30T03:52:32;102081.59;;;23.52
67509;BMP280;54354;44.724;11.284;2023-09-30T03:55:02;102084.03;;;23.50
67509;BMP280;54354;44.724;11.284;2023-09-30T03:57:34;102075.34;;;23.46
67509;BMP280;54354;44.724;11.284;2023-09-30T04:00:00;102083.00;;;23.48
67509;BMP280;54354;44.724;11.284;2023-09-30T04:02:26;102080.47;;;23.44
67509;BMP280;54354;44.724;11.284;2023-09-30T04:04:52;102086.63;;;23.45
67509;BMP280;54354;44.724;11.284;2023-09-30T04:07:21;102088.03;;;23.40
67509;BMP280;54354;44.724;11.284;2023-09-30T04:09:47;102083.84;;;23.39
67509;BMP280;54354;44.724;11.284;2023-09-30T04:12:13;102092.91;;;23.36
67509;BMP280;54354;44.724;11.284;2023-09-30T04:14:38;102097.53;;;23.35
67509;BMP280;54354;44.724;11.284;2023-09-30T04:17:04;102102.66;;;23.33
67509;BMP280;54354;44.724;11.284;2023-09-30T04:19:30;102103.41;;;23.34
67509;BMP280;54354;44.724;11.284;2023-09-30T04:21:56;102103.88;;;23.32
67509;BMP280;54354;44.724;11.284;2023-09-30T04:24:21;102105.72;;;23.26
67509;BMP280;54354;44.724;11.284;2023-09-30T04:26:47;102103.00;;;23.26
67509;BMP280;54354;44.724;11.284;2023-09-30T04:29:15;102101.97;;;23.24
67509;BMP280;54354;44.724;11.284;2023-09-30T04:31:41;102102.91;;;23.21
67509;BMP280;54354;44.724;11.284;2023-09-30T04:34:07;102098.44;;;23.18
67509;BMP280;54354;44.724;11.284;2023-09-30T04:36:33;102096.22;;;23.16
67509;BMP280;54354;44.724;11.284;2023-09-30T04:39:01;102098.63;;;23.14
67509;BMP280;54354;44.724;11.284;2023-09-30T04:41:28;102105.69;;;23.12
67509;BMP280;54354;44.724;11.284;2023-09-30T04:43:53;102114.28;;;23.10
67509;BMP280;54354;44.724;11.284;2023-09-30T04:46:19;102115.19;;;23.07
67509;BMP280;54354;44.724;11.284;2023-09-30T04:48:47;102113.69;;;23.06
67509;BMP280;54354;44.724;11.284;2023-09-30T04:51:14;102111.91;;;23.03
67509;BMP280;54354;44.724;11.284;2023-09-30T04:53:43;102113.22;;;23.07
67509;BMP280;54354;44.724;11.284;2023-09-30T04:56:08;102113.41;;;23.04
67509;BMP280;54354;44.724;11.284;2023-09-30T04:58:34;102115.84;;;23.02
67509;BMP280;54354;44.724;11.284;2023-09-30T05:00:59;102115.53;;;23.00
67509;BMP280;54354;44.724;11.284;2023-09-30T05:03:25;102119.00;;;23.00
67509;BMP280;54354;44.724;11.284;2023-09-30T05:05:52;102113.50;;;22.95
67509;BMP280;54354;44.724;11.284;2023-09-30T05:08:19;102117.56;;;22.90
67509;BMP280;54354;44.724;11.284;2023-09-30T05:10:44;102122.03;;;22.93
67509;BMP280;54354;44.724;11.284;2023-09-30T05:13:11;102121.47;;;22.89
67509;BMP280;54354;44.724;11.284;2023-09-30T05:15:37;102115.34;;;22.89
67509;BMP280;54354;44.724;11.284;2023-09-30T05:18:03;102114.56;;;22.88
67509;BMP280;54354;44.724;11.284;2023-09-30T05:20:30;102106.94;;;22.87
67509;BMP280;54354;44.724;11.284;2023-09-30T05:22:55;102114.56;;;22.88
67509;BMP280;54354;44.724;11.284;2023-09-30T05:25:21;102105.44;;;22.86
67509;BMP280;54354;44.724;11.284;2023-09-30T05:27:51;102115.06;;;22.87
67509;BMP280;54354;44.724;11.284;2023-09-30T05:30:17;102116.03;;;22.74
67509;BMP280;54354;44.724;11.284;2023-09-30T05:32:44;102126.41;;;22.67
67509;BMP280;54354;44.724;11.284;2023-09-30T05:35:12;102121.38;;;22.60
67509;BMP280;54354;44.724;11.284;2023-09-30T05:37:41;102121.88;;;22.49
67509;BMP280;54354;44.724;11.284;2023-09-30T05:40:08;102128.13;;;22.55
67509;BMP280;54354;44.724;11.284;2023-09-30T05:42:53;102127.88;;;22.53
67509;BMP280;54354;44.724;11.284;2023-09-30T05:45:19;102129.47;;;22.60
67509;BMP280;54354;44.724;11.284;2023-09-30T05:51:32;102129.91;;;22.91
67509;BMP280;54354;44.724;11.284;2023-09-30T05:53:59;102136.28;;;22.94
67509;BMP280;54354;44.724;11.284;2023-09-30T05:56:55;102120.13;;;23.08
67509;BMP280;54354;44.724;11.284;2023-09-30T05:59:22;102126.75;;;23.07
67509;BMP280;54354;44.724;11.284;2023-09-30T06:01:51;102122.28;;;23.04
67509;BMP280;54354;44.724;11.284;2023-09-30T06:04:16;102123.13;;;23.11
67509;BMP280;54354;44.724;11.284;2023-09-30T06:06:42;102137.19;;;23.15
67509;BMP280;54354;44.724;11.284;2023-09-30T06:09:08;102139.00;;;23.18
67509;BMP280;54354;44.724;11.284;2023-09-30T06:11:33;102132.38;;;23.19
67509;BMP280;54354;44.724;11.284;2023-09-30T06:14:01;102149.34;;;23.19
67509;BMP280;54354;44.724;11.284;2023-09-30T06:16:30;102145.59;;;23.17
67509;BMP280;54354;44.724;11.284;2023-09-30T06:18:57;102170.91;;;23.28
67509;BMP280;54354;44.724;11.284;2023-09-30T06:21:24;102154.88;;;23.25
67509;BMP280;54354;44.724;11.284;2023-09-30T06:23:50;102160.81;;;23.29
67509;BMP280;54354;44.724;11.284;2023-09-30T06:29:30;102163.94;;;23.36
67509;BMP280;54354;44.724;11.284;2023-09-30T06:32:16;102161.75;;;23.41
67509;BMP280;54354;44.724;11.284;2023-09-30T06:34:42;102167.16;;;23.41
67509;BMP280;54354;44.724;11.284;2023-09-30T06:37:08;102169.16;;;23.40
67509;BMP280;54354;44.724;11.284;2023-09-30T06:39:33;102174.38;;;23.44
67509;BMP280;54354;44.724;11.284;2023-09-30T06:41:59;102183.31;;;23.50
67509;BMP280;54354;44.724;11.284;2023-09-30T06:44:25;102182.69;;;23.55
67509;BMP280;54354;44.724;11.284;2023-09-30T06:47:11;102161.53;;;23.68
67509;BMP280;54354;44.724;11.284;2023-09-30T06:49:38;102154.34;;;23.65
67509;BMP280;54354;44.724;11.284;2023-09-30T06:52:04;102158.06;;;23.67
67509;BMP280;54354;44.724;11.284;2023-09-30T06:54:31;102156.69;;;23.72
67509;BMP280;54354;44.724;11.284;2023-09-30T06:56:57;102150.63;;;23.77
67509;BMP280;54354;44.724;11.284;2023-09-30T06:59:22;102156.69;;;23.87
67509;BMP280;54354;44.724;11.284;2023-09-30T07:01:50;102158.69;;;23.92
67509;BMP280;54354;44.724;11.284;2023-09-30T07:04:19;102142.78;;;23.94
67509;BMP280;54354;44.724;11.284;2023-09-30T07:06:44;102153.03;;;24.05
67509;BMP280;54354;44.724;11.284;2023-09-30T07:09:10;102149.94;;;24.12
67509;BMP280;54354;44.724;11.284;2023-09-30T07:11:37;102143.88;;;24.17
67509;BMP280;54354;44.724;11.284;2023-09-30T07:14:02;102151.41;;;24.27
67509;BMP280;54354;44.724;11.284;2023-09-30T07:16:28;102141.38;;;24.34
67509;BMP280;54354;44.724;11.284;2023-09-30T07:18:53;102147.44;;;24.43
67509;BMP280;54354;44.724;11.284;2023-09-30T07:21:24;102130.91;;;24.41
67509;BMP280;54354;44.724;11.284;2023-09-30T07:23:50;102153.25;;;24.56
67509;BMP280;54354;44.724;11.284;2023-09-30T07:26:15;102147.94;;;24.62
67509;BMP280;54354;44.724;11.284;2023-09-30T07:28:41;102149.53;;;24.74
67509;BMP280;54354;44.724;11.284;2023-09-30T07:31:10;102150.91;;;24.84
67509;BMP280;54354;44.724;11.284;2023-09-30T07:33:35;102148.06;;;24.94
67509;BMP280;54354;44.724;11.284;2023-09-30T07:36:01;102154.53;;;25.22
67509;BMP280;54354;44.724;11.284;2023-09-30T07:38:27;102152.28;;;25.46
67509;BMP280;54354;44.724;11.284;2023-09-30T07:40:53;102152.72;;;25.71
67509;BMP280;54354;44.724;11.284;2023-09-30T07:43:22;102162.06;;;26.01
67509;BMP280;54354;44.724;11.284;2023-09-30T07:45:47;102165.19;;;26.26
67509;BMP280;54354;44.724;11.284;2023-09-30T07:48:13;102161.34;;;26.49
67509;BMP280;54354;44.724;11.284;2023-09-30T07:50:39;102169.38;;;26.75
67509;BMP280;54354;44.724;11.284;2023-09-30T07:53:06;102175.34;;;27.01
67509;BMP280;54354;44.724;11.284;2023-09-30T07:55:32;102179.84;;;27.27
67509;BMP280;54354;44.724;11.284;2023-09-30T07:57:57;102193.97;;;27.53
67509;BMP280;54354;44.724;11.284;2023-09-30T08:00:25;102201.09;;;27.79
67509;BMP280;54354;44.724;11.284;2023-09-30T08:02:50;102199.63;;;28.00
67509;BMP280;54354;44.724;11.284;2023-09-30T08:05:16;102209.97;;;28.24
67509;BMP280;54354;44.724;11.284;2023-09-30T08:07:42;102209.16;;;28.40
67509;BMP280;54354;44.724;11.284;2023-09-30T08:10:08;102216.28;;;28.54
67509;BMP280;54354;44.724;11.284;2023-09-30T08:12:39;102214.72;;;28.70
67509;BMP280;54354;44.724;11.284;2023-09-30T08:15:06;102211.94;;;28.81
67509;BMP280;54354;44.724;11.284;2023-09-30T08:17:31;102210.91;;;28.90
67509;BMP280;54354;44.724;11.284;2023-09-30T08:19:57;102212.38;;;28.91
67509;BMP280;54354;44.724;11.284;2023-09-30T08:22:23;102216.13;;;28.88
67509;BMP280;54354;44.724;11.284;2023-09-30T08:24:53;102210.19;;;28.84
67509;BMP280;54354;44.724;11.284;2023-09-30T08:27:19;102213.22;;;28.75
67509;BMP280;54354;44.724;11.284;2023-09-30T08:29:45;102209.53;;;28.67
67509;BMP280;54354;44.724;11.284;2023-09-30T08:32:11;102216.78;;;28.58
67509;BMP280;54354;44.724;11.284;2023-09-30T08:34:36;102218.50;;;28.56
67509;BMP280;54354;44.724;11.284;2023-09-30T08:37:02;102219.28;;;28.51
67509;BMP280;54354;44.724;11.284;2023-09-30T08:39:28;102221.78;;;28.49
67509;BMP280;54354;44.724;11.284;2023-09-30T08:41:57;102223.75;;;28.48
67509;BMP280;54354;44.724;11.284;2023-09-30T08:44:23;102220.31;;;28.42
67509;BMP280;54354;44.724;11.284;2023-09-30T08:46:50;102216.88;;;28.36
67509;BMP280;54354;44.724;11.284;2023-09-30T08:49:20;102224.78;;;28.40
67509;BMP280;54354;44.724;11.284;2023-09-30T08:51:48;102215.63;;;28.37
67509;BMP280;54354;44.724;11.284;2023-09-30T08:54:14;102223.28;;;28.39
67509;BMP280;54354;44.724;11.284;2023-09-30T08:56:40;102219.31;;;28.40
67509;BMP280;54354;44.724;11.284;2023-09-30T08:59:09;102212.88;;;28.43
67509;BMP280;54354;44.724;11.284;2023-09-30T09:01:35;102216.34;;;28.43
67509;BMP280;54354;44.724;11.284;2023-09-30T09:04:01;102221.28;;;28.45
67509;BMP280;54354;44.724;11.284;2023-09-30T09:06:26;102222.03;;;28.45
67509;BMP280;54354;44.724;11.284;2023-09-30T09:08:52;102223.25;;;28.44
67509;BMP280;54354;44.724;11.284;2023-09-30T09:11:18;102225.72;;;28.48
67509;BMP280;54354;44.724;11.284;2023-09-30T09:13:48;102216.78;;;28.47
67509;BMP280;54354;44.724;11.284;2023-09-30T09:16:16;102219.25;;;28.56
67509;BMP280;54354;44.724;11.284;2023-09-30T09:18:43;102227.66;;;28.64
67509;BMP280;54354;44.724;11.284;2023-09-30T09:21:13;102230.34;;;28.70
67509;BMP280;54354;44.724;11.284;2023-09-30T09:23:42;102224.59;;;28.79
67509;BMP280;54354;44.724;11.284;2023-09-30T09:26:09;102209.97;;;28.82
67509;BMP280;54354;44.724;11.284;2023-09-30T09:28:35;102210.66;;;28.88
67509;BMP280;54354;44.724;11.284;2023-09-30T09:31:21;102197.47;;;28.97
67509;BMP280;54354;44.724;11.284;2023-09-30T09:33:51;102197.22;;;28.95
67509;BMP280;54354;44.724;11.284;2023-09-30T09:36:37;102195.00;;;28.94
67509;BMP280;54354;44.724;11.284;2023-09-30T09:39:07;102196.19;;;29.04
67509;BMP280;54354;44.724;11.284;2023-09-30T09:44:21;102194.47;;;29.01
67509;BMP280;54354;44.724;11.284;2023-09-30T09:46:49;102201.88;;;29.06
67509;BMP280;54354;44.724;11.284;2023-09-30T09:49:19;102201.13;;;29.06
67509;BMP280;54354;44.724;11.284;2023-09-30T09:51:46;102199.13;;;29.06
67509;BMP280;54354;44.724;11.284;2023-09-30T09:54:12;102209.03;;;29.09
67509;BMP280;54354;44.724;11.284;2023-09-30T09:56:39;102208.78;;;29.13
67509;BMP280;54354;44.724;11.284;2023-09-30T09:59:05;102203.03;;;29.16
67509;BMP280;54354;44.724;11.284;2023-09-30T10:01:34;102198.59;;;29.13
67509;BMP280;54354;44.724;11.284;2023-09-30T10:04:01;102192.81;;;29.22
67509;BMP280;54354;44.724;11.284;2023-09-30T10:06:28;102196.56;;;29.19
67509;BMP280;54354;44.724;11.284;2023-09-30T10:08:54;102180.69;;;29.18
67509;BMP280;54354;44.724;11.284;2023-09-30T10:11:23;102179.97;;;29.17
67509;BMP280;54354;44.724;11.284;2023-09-30T10:13:58;102174.78;;;29.14
67509;BMP280;54354;44.724;11.284;2023-09-30T10:19:15;102174.28;;;29.15
67509;BMP280;54354;44.724;11.284;2023-09-30T10:24:54;102189.13;;;29.74
67509;BMP280;54354;44.724;11.284;2023-09-30T10:35:17;102200.53;;;29.18
67509;BMP280;54354;44.724;11.284;2023-09-30T10:37:44;102186.69;;;29.11
67509;BMP280;54354;44.724;11.284;2023-09-30T10:43:31;102202.25;;;29.21
67509;BMP280;54354;44.724;11.284;2023-09-30T10:45:57;102205.22;;;29.23
67509;BMP280;54354;44.724;11.284;2023-09-30T10:52:11;102195.31;;;29.50
67509;BMP280;54354;44.724;11.284;2023-09-30T10:54:37;102204.88;;;29.62
67509;BMP280;54354;44.724;11.284;2023-09-30T10:57:02;102205.06;;;29.70
67509;BMP280;54354;44.724;11.284;2023-09-30T10:59:29;102197.09;;;29.72
67509;BMP280;54354;44.724;11.284;2023-09-30T11:02:00;102185.84;;;29.81
67509;BMP280;54354;44.724;11.284;2023-09-30T11:04:26;102180.59;;;29.83
67509;BMP280;54354;44.724;11.284;2023-09-30T11:06:55;102178.09;;;29.85
67509;BMP280;54354;44.724;11.284;2023-09-30T11:09:22;102176.63;;;29.84
67509;BMP280;54354;44.724;11.284;2023-09-30T11:11:49;102171.91;;;29.85
67509;BMP280;54354;44.724;11.284;2023-09-30T11:14:25;102166.94;;;29.83
67509;BMP280;54354;44.724;11.284;2023-09-30T11:16:53;102167.16;;;29.85
67509;BMP280;54354;44.724;11.284;2023-09-30T11:19:19;102166.13;;;29.88
67509;BMP280;54354;44.724;11.284;2023-09-30T11:21:50;102164.84;;;29.89
67509;BMP280;54354;44.724;11.284;2023-09-30T11:24:17;102165.13;;;29.91
67509;BMP280;54354;44.724;11.284;2023-09-30T11:26:44;102159.66;;;29.91
67509;BMP280;54354;44.724;11.284;2023-09-30T11:29:15;102156.91;;;29.91
67509;BMP280;54354;44.724;11.284;2023-09-30T11:31:47;102161.59;;;29.97
67509;BMP280;54354;44.724;11.284;2023-09-30T11:34:16;102162.75;;;30.01
67509;BMP280;54354;44.724;11.284;2023-09-30T11:36:50;102154.63;;;29.95
67509;BMP280;54354;44.724;11.284;2023-09-30T11:41:49;102169.50;;;30.00
67509;BMP280;54354;44.724;11.284;2023-09-30T11:44:15;102157.09;;;29.99
67509;BMP280;54354;44.724;11.284;2023-09-30T11:46:52;102146.41;;;29.95
67509;BMP280;54354;44.724;11.284;2023-09-30T11:49:39;102142.16;;;30.00
67509;BMP280;54354;44.724;11.284;2023-09-30T11:52:07;102135.41;;;30.01
67509;BMP280;54354;44.724;11.284;2023-09-30T11:54:35;102136.72;;;30.00
67509;BMP280;54354;44.724;11.284;2023-09-30T11:57:07;102138.63;;;30.05
67509;BMP280;54354;44.724;11.284;2023-09-30T11:59:35;102126.44;;;30.06
67509;BMP280;54354;44.724;11.284;2023-09-30T12:02:08;102114.03;;;30.05
67509;BMP280;54354;44.724;11.284;2023-09-30T12:04:38;102108.00;;;30.12
67509;BMP280;54354;44.724;11.284;2023-09-30T12:07:04;102122.38;;;30.13
67509;BMP280;54354;44.724;11.284;2023-09-30T12:09:29;102115.66;;;30.14
67509;BMP280;54354;44.724;11.284;2023-09-30T12:11:56;102108.22;;;30.14
67509;BMP280;54354;44.724;11.284;2023-09-30T12:14:26;102098.50;;;30.13
67509;BMP280;54354;44.724;11.284;2023-09-30T12:16:54;102104.44;;;30.17
67509;BMP280;54354;44.724;11.284;2023-09-30T12:19:20;102105.91;;;30.18
67509;BMP280;54354;44.724;11.284;2023-09-30T13:03:05;102082.63;;;30.63
67509;BMP280;54354;44.724;11.284;2023-09-30T13:05:33;102083.69;;;30.59
67509;BMP280;54354;44.724;11.284;2023-09-30T13:07:59;102081.91;;;30.62
67509;BMP280;54354;44.724;11.284;2023-09-30T13:10:45;102075.59;;;30.67
67509;BMP280;54354;44.724;11.284;2023-09-30T13:53:39;102040.72;;;31.00
67509;BMP280;54354;44.724;11.284;2023-09-30T13:56:06;102032.09;;;30.95
67509;BMP280;54354;44.724;11.284;2023-09-30T13:59:13;102038.31;;;31.09
67509;BMP280;54354;44.724;11.284;2023-09-30T14:01:39;102046.09;;;31.05
67509;BMP280;54354;44.724;11.284;2023-09-30T14:04:08;102036.00;;;31.00
67509;BMP280;54354;44.724;11.284;2023-09-30T14:06:37;102033.38;;;30.94
67509;BMP280;54354;44.724;11.284;2023-09-30T14:09:03;102041.34;;;31.06
67509;BMP280;54354;44.724;11.284;2023-09-30T14:11:29;102037.69;;;31.03
67509;BMP280;54354;44.724;11.284;2023-09-30T14:13:56;102036.19;;;31.02
67509;BMP280;54354;44.724;11.284;2023-09-30T14:16:24;102023.03;;;31.01
67509;BMP280;54354;44.724;11.284;2023-09-30T14:18:51;102022.72;;;31.04
67509;BMP280;54354;44.724;11.284;2023-09-30T14:21:16;102030.63;;;31.08
67509;BMP280;54354;44.724;11.284;2023-09-30T14:23:43;102027.16;;;31.07
67509;BMP280;54354;44.724;11.284;2023-09-30T14:26:10;102025.38;;;31.10
67509;BMP280;54354;44.724;11.284;2023-09-30T14:28:37;102017.69;;;31.08
67509;BMP280;54354;44.724;11.284;2023-09-30T14:31:03;102014.19;;;31.08
67509;BMP280;54354;44.724;11.284;2023-09-30T14:33:29;102026.09;;;31.10
67509;BMP280;54354;44.724;11.284;2023-09-30T14:35:55;102017.88;;;31.10
67509;BMP280;54354;44.724;11.284;2023-09-30T14:38:22;102015.88;;;31.11
67509;BMP280;54354;44.724;11.284;2023-09-30T14:40:47;102019.56;;;31.13
67509;BMP280;54354;44.724;11.284;2023-09-30T14:43:13;102021.03;;;31.14
67509;BMP280;54354;44.724;11.284;2023-09-30T14:45:39;102011.88;;;31.12
67509;BMP280;54354;44.724;11.284;2023-09-30T14:48:08;102007.69;;;31.11
67509;BMP280;54354;44.724;11.284;2023-09-30T14:50:37;102014.63;;;31.12
67509;BMP280;54354;44.724;11.284;2023-09-30T14:53:03;102006.22;;;31.10
67509;BMP280;54354;44.724;11.284;2023-09-30T14:55:32;102007.69;;;31.11
67509;BMP280;54354;44.724;11.284;2023-09-30T14:57:58;102009.69;;;31.10
67509;BMP280;54354;44.724;11.284;2023-09-30T15:00:24;102016.09;;;31.13
67509;BMP280;54354;44.724;11.284;2023-09-30T15:02:55;102008.63;;;31.13
67509;BMP280;54354;44.724;11.284;2023-09-30T15:05:20;102019.56;;;31.13
67509;BMP280;54354;44.724;11.284;2023-09-30T15:07:46;102016.63;;;31.11
67509;BMP280;54354;44.724;11.284;2023-09-30T15:10:12;102021.88;;;31.09
67509;BMP280;54354;44.724;11.284;2023-09-30T15:12:38;102023.88;;;31.09
67509;BMP280;54354;44.724;11.284;2023-09-30T15:15:04;102020.94;;;31.07
67509;BMP280;54354;44.724;11.284;2023-09-30T15:17:29;102012.09;;;31.01
67509;BMP280;54354;44.724;11.284;2023-09-30T15:19:55;102012.63;;;30.99
67509;BMP280;54354;44.724;11.284;2023-09-30T15:22:21;102009.88;;;30.99
67509;BMP280;54354;44.724;11.284;2023-09-30T15:24:46;102010.94;;;30.96
67509;BMP280;54354;44.724;11.284;2023-09-30T15:27:12;101994.84;;;30.92
67509;BMP280;54354;44.724;11.284;2023-09-30T15:29:38;102001.59;;;30.91
67509;BMP280;54354;44.724;11.284;2023-09-30T15:32:04;101999.69;;;30.86
67509;BMP280;54354;44.724;11.284;2023-09-30T15:34:30;102000.97;;;30.85
67509;BMP280;54354;44.724;11.284;2023-09-30T15:37:03;101994.84;;;30.79
67509;BMP280;54354;44.724;11.284;2023-09-30T15:39:37;101995.91;;;30.76
67509;BMP280;54354;44.724;11.284;2023-09-30T15:42:03;102012.50;;;30.78
67509;BMP280;54354;44.724;11.284;2023-09-30T15:44:29;102010.09;;;30.75
67509;BMP280;54354;44.724;11.284;2023-09-30T15:47:05;101995.13;;;30.63